sensor_id;sensor_type;location;lat;lon;timestamp;pressure;altitude;pressure_sealevel;temperature;humidity
53715;BME280;39608;55.630;37.864;2023-04-26T00:04:39;98195.47;;;12.76;62.55
53715;BME280;39608;55.630;37.864;2023-04-26T00:09:42;98180.16;;;12.72;63.43
53715;BME280;39608;55.630;37.864;2023-04-26T00:14:45;98176.88;;;12.66;63.83
53715;BME280;39608;55.630;37.864;2023-04-26T00:19:47;98173.94;;;12.71;63.12
53715;BME280;39608;55.630;37.864;2023-04-26T00:24:50;98167.38;;;12.60;63.72
53715;BME280;39608;55.630;37.864;2023-04-26T00:29:53;98169.19;;;12.56;64.00
53715;BME280;39608;55.630;37.864;2023-04-26T00:34:55;98154.25;;;12.49;63.58
53715;BME280;39608;55.630;37.864;2023-04-26T00:39:58;98158.22;;;12.52;63.59
53715;BME280;39608;55.630;37.864;2023-04-26T00:45:00;98155.72;;;12.47;64.29
53715;BME280;39608;55.630;37.864;2023-04-26T00:50:06;98143.94;;;12.43;64.06
53715;BME280;39608;55.630;37.864;2023-04-26T00:55:12;98146.66;;;12.55;64.96
53715;BME280;39608;55.630;37.864;2023-04-26T01:00:16;98137.34;;;12.56;64.42
53715;BME280;39608;55.630;37.864;2023-04-26T01:05:18;98133.06;;;12.55;64.56
53715;BME280;39608;55.630;37.864;2023-04-26T01:10:22;98132.72;;;12.57;65.49
53715;BME280;39608;55.630;37.864;2023-04-26T01:15:25;98115.59;;;12.56;64.71
53715;BME280;39608;55.630;37.864;2023-04-26T01:20:27;98118.56;;;12.51;64.49
53715;BME280;39608;55.630;37.864;2023-04-26T01:25:31;98106.88;;;12.50;64.83
53715;BME280;39608;55.630;37.864;2023-04-26T01:30:34;98098.06;;;12.41;64.53
53715;BME280;39608;55.630;37.864;2023-04-26T01:35:36;98084.00;;;12.39;64.82
53715;BME280;39608;55.630;37.864;2023-04-26T01:40:39;98097.81;;;12.46;64.90
53715;BME280;39608;55.630;37.864;2023-04-26T01:45:45;98086.81;;;12.68;62.87
53715;BME280;39608;55.630;37.864;2023-04-26T01:50:47;98065.19;;;12.46;64.71
53715;BME280;39608;55.630;37.864;2023-04-26T01:55:50;98072.34;;;12.51;65.44
53715;BME280;39608;55.630;37.864;2023-04-26T02:00:53;98057.38;;;12.45;65.43
53715;BME280;39608;55.630;37.864;2023-04-26T02:05:55;98052.97;;;12.40;65.51
53715;BME280;39608;55.630;37.864;2023-04-26T02:10:58;98056.16;;;12.42;65.78
53715;BME280;39608;55.630;37.864;2023-04-26T02:16:00;98033.88;;;12.24;65.70
53715;BME280;39608;55.630;37.864;2023-04-26T02:21:06;98037.59;;;12.32;66.05
53715;BME280;39608;55.630;37.864;2023-04-26T02:26:10;98039.41;;;12.28;66.25
53715;BME280;39608;55.630;37.864;2023-04-26T02:31:12;98028.78;;;12.23;66.78
53715;BME280;39608;55.630;37.864;2023-04-26T02:36:14;98028.78;;;12.23;66.58
53715;BME280;39608;55.630;37.864;2023-04-26T02:41:17;98021.19;;;12.16;67.21
53715;BME280;39608;55.630;37.864;2023-04-26T02:46:19;98014.06;;;12.11;66.99
53715;BME280;39608;55.630;37.864;2023-04-26T02:51:21;98014.53;;;12.13;67.09
53715;BME280;39608;55.630;37.864;2023-04-26T02:56:25;98007.50;;;12.12;66.69
53715;BME280;39608;55.630;37.864;2023-04-26T03:01:27;97996.28;;;12.02;66.49
53715;BME280;39608;55.630;37.864;2023-04-26T03:06:29;98011.09;;;12.17;66.60
53715;BME280;39608;55.630;37.864;2023-04-26T03:11:32;98008.03;;;12.18;66.97
53715;BME280;39608;55.630;37.864;2023-04-26T03:21:42;97993.88;;;12.25;67.38
53715;BME280;39608;55.630;37.864;2023-04-26T03:26:45;97992.28;;;12.36;67.21
53715;BME280;39608;55.630;37.864;2023-04-26T03:31:47;97974.28;;;12.31;67.04
53715;BME280;39608;55.630;37.864;2023-04-26T03:36:49;97983.56;;;12.30;67.41
53715;BME280;39608;55.630;37.864;2023-04-26T03:41:52;97984.34;;;12.31;67.39
53715;BME280;39608;55.630;37.864;2023-04-26T03:46:54;97984.34;;;12.31;67.79
53715;BME280;39608;55.630;37.864;2023-04-26T03:51:56;97979.25;;;12.29;67.66
53715;BME280;39608;55.630;37.864;2023-04-26T03:57:00;97973.16;;;12.32;67.71
53715;BME280;39608;55.630;37.864;2023-04-26T04:02:02;97973.78;;;12.42;67.15
53715;BME280;39608;55.630;37.864;2023-04-26T04:07:04;97972.53;;;12.39;67.31
53715;BME280;39608;55.630;37.864;2023-04-26T04:12:08;97966.44;;;12.42;67.20
53715;BME280;39608;55.630;37.864;2023-04-26T04:17:10;97960.44;;;12.37;67.21
53715;BME280;39608;55.630;37.864;2023-04-26T04:22:12;97958.47;;;12.49;67.70
53715;BME280;39608;55.630;37.864;2023-04-26T04:27:15;97962.44;;;12.52;67.54
53715;BME280;39608;55.630;37.864;2023-04-26T04:32:18;97967.19;;;12.55;68.06
53715;BME280;39608;55.630;37.864;2023-04-26T04:37:20;97956.16;;;12.64;67.76
53715;BME280;39608;55.630;37.864;2023-04-26T04:42:24;97966.63;;;12.78;67.92
53715;BME280;39608;55.630;37.864;2023-04-26T04:47:27;97954.50;;;12.75;67.29
53715;BME280;39608;55.630;37.864;2023-04-26T04:52:29;97957.94;;;12.88;67.52
53715;BME280;39608;55.630;37.864;2023-04-26T04:57:34;97956.38;;;12.87;67.62
53715;BME280;39608;55.630;37.864;2023-04-26T05:02:36;97966.16;;;13.04;67.78
53715;BME280;39608;55.630;37.864;2023-04-26T05:07:38;97952.72;;;13.11;67.34
53715;BME280;39608;55.630;37.864;2023-04-26T05:12:41;97949.91;;;13.08;67.36
53715;BME280;39608;55.630;37.864;2023-04-26T05:17:43;97947.34;;;13.15;66.75
53715;BME280;39608;55.630;37.864;2023-04-26T05:22:46;97959.47;;;13.17;67.19
53715;BME280;39608;55.630;37.864;2023-04-26T05:27:49;97951.66;;;13.16;66.99
53715;BME280;39608;55.630;37.864;2023-04-26T05:32:51;97945.44;;;13.15;67.14
53715;BME280;39608;55.630;37.864;2023-04-26T05:37:56;97954.56;;;13.23;67.08
53715;BME280;39608;55.630;37.864;2023-04-26T05:43:00;97960.28;;;13.18;66.77
53715;BME280;39608;55.630;37.864;2023-04-26T05:48:02;97957.47;;;13.14;67.21
53715;BME280;39608;55.630;37.864;2023-04-26T05:53:05;97954.50;;;13.20;67.19
53715;BME280;39608;55.630;37.864;2023-04-26T05:58:08;97960.88;;;13.27;67.27
53715;BME280;39608;55.630;37.864;2023-04-26T06:03:11;97957.47;;;13.30;67.51
53715;BME280;39608;55.630;37.864;2023-04-26T06:08:33;97926.81;;;13.17;67.14
53715;BME280;39608;55.630;37.864;2023-04-26T06:14:24;97930.50;;;13.25;66.72
53715;BME280;39608;55.630;37.864;2023-04-26T06:19:30;97902.69;;;13.00;66.80
53715;BME280;39608;55.630;37.864;2023-04-26T06:24:45;97921.03;;;13.03;67.35
53715;BME280;39608;55.630;37.864;2023-04-26T06:35:59;97950.34;;;13.26;67.44
53715;BME280;39608;55.630;37.864;2023-04-26T06:41:20;97979.91;;;13.56;67.34
53715;BME280;39608;55.630;37.864;2023-04-26T06:46:32;97979.28;;;13.62;66.62
53715;BME280;39608;55.630;37.864;2023-04-26T06:52:02;97976.97;;;13.80;66.99
53715;BME280;39608;55.630;37.864;2023-04-26T06:57:10;97955.81;;;13.58;66.64
53715;BME280;39608;55.630;37.864;2023-04-26T07:02:13;97968.88;;;13.68;66.03
53715;BME280;39608;55.630;37.864;2023-04-26T07:07:24;97984.88;;;13.85;66.35
53715;BME280;39608;55.630;37.864;2023-04-26T07:12:27;97994.81;;;13.78;66.17
53715;BME280;39608;55.630;37.864;2023-04-26T07:17:29;97994.63;;;13.71;66.94
53715;BME280;39608;55.630;37.864;2023-04-26T07:22:32;98002.97;;;13.94;66.20
53715;BME280;39608;55.630;37.864;2023-04-26T07:27:34;97996.28;;;13.91;66.44
53715;BME280;39608;55.630;37.864;2023-04-26T07:32:36;98002.88;;;13.90;65.74
53715;BME280;39608;55.630;37.864;2023-04-26T07:37:40;98001.03;;;13.94;65.96
53715;BME280;39608;55.630;37.864;2023-04-26T07:42:42;98013.34;;;13.88;66.01
53715;BME280;39608;55.630;37.864;2023-04-26T07:47:44;98008.69;;;13.89;66.08
53715;BME280;39608;55.630;37.864;2023-04-26T07:52:48;98011.25;;;13.81;66.25
53715;BME280;39608;55.630;37.864;2023-04-26T07:57:50;98019.69;;;13.92;65.43
53715;BME280;39608;55.630;37.864;2023-04-26T08:02:52;98025.38;;;14.03;65.64
53715;BME280;39608;55.630;37.864;2023-04-26T08:07:56;98024.84;;;13.97;65.69
53715;BME280;39608;55.630;37.864;2023-04-26T08:12:58;98036.25;;;14.03;65.25
53715;BME280;39608;55.630;37.864;2023-04-26T08:18:03;98032.59;;;13.95;65.22
53715;BME280;39608;55.630;37.864;2023-04-26T08:23:06;98036.56;;;13.98;65.28
53715;BME280;39608;55.630;37.864;2023-04-26T08:28:08;98049.38;;;13.97;65.49
53715;BME280;39608;55.630;37.864;2023-04-26T08:33:14;98052.16;;;14.17;64.64
53715;BME280;39608;55.630;37.864;2023-04-26T08:38:17;98049.78;;;14.15;64.87
53715;BME280;39608;55.630;37.864;2023-04-26T08:43:22;98054.78;;;14.29;64.20
53715;BME280;39608;55.630;37.864;2023-04-26T08:48:25;98043.34;;;14.24;64.41
53715;BME280;39608;55.630;37.864;2023-04-26T08:53:30;98060.31;;;14.33;63.78
53715;BME280;39608;55.630;37.864;2023-04-26T08:58:36;98053.69;;;14.50;63.27
53715;BME280;39608;55.630;37.864;2023-04-26T09:03:38;98047.06;;;14.51;63.62
53715;BME280;39608;55.630;37.864;2023-04-26T09:08:43;98056.31;;;14.62;62.98
53715;BME280;39608;55.630;37.864;2023-04-26T09:13:45;98065.38;;;14.66;62.83
53715;BME280;39608;55.630;37.864;2023-04-26T09:18:49;98077.16;;;14.70;62.67
53715;BME280;39608;55.630;37.864;2023-04-26T09:24:00;98086.53;;;14.93;62.26
53715;BME280;39608;55.630;37.864;2023-04-26T09:29:11;98075.34;;;14.78;62.20
53715;BME280;39608;55.630;37.864;2023-04-26T09:34:14;98089.66;;;14.55;62.63
53715;BME280;39608;55.630;37.864;2023-04-26T09:39:32;98087.97;;;14.67;63.11
53715;BME280;39608;55.630;37.864;2023-04-26T09:44:33;98095.69;;;15.00;60.42
53715;BME280;39608;55.630;37.864;2023-04-26T09:49:43;98100.25;;;14.77;63.11
53715;BME280;39608;55.630;37.864;2023-04-26T09:54:49;98096.75;;;14.60;62.82
53715;BME280;39608;55.630;37.864;2023-04-26T09:59:53;98098.00;;;14.63;62.24
53715;BME280;39608;55.630;37.864;2023-04-26T10:04:56;98113.34;;;14.51;63.34
53715;BME280;39608;55.630;37.864;2023-04-26T10:10:00;98107.16;;;14.70;62.17
53715;BME280;39608;55.630;37.864;2023-04-26T10:15:07;98104.38;;;14.86;61.64
53715;BME280;39608;55.630;37.864;2023-04-26T10:20:11;98130.53;;;15.27;61.78
53715;BME280;39608;55.630;37.864;2023-04-26T10:25:15;98139.44;;;15.43;60.99
53715;BME280;39608;55.630;37.864;2023-04-26T10:30:21;98143.22;;;15.58;60.29
53715;BME280;39608;55.630;37.864;2023-04-26T10:35:27;98145.97;;;15.38;61.47
53715;BME280;39608;55.630;37.864;2023-04-26T10:40:34;98157.72;;;15.39;60.55
53715;BME280;39608;55.630;37.864;2023-04-26T10:45:38;98153.94;;;15.08;62.14
53715;BME280;39608;55.630;37.864;2023-04-26T10:51:07;98151.94;;;15.25;61.93
53715;BME280;39608;55.630;37.864;2023-04-26T10:56:51;98159.63;;;15.19;61.21
53715;BME280;39608;55.630;37.864;2023-04-26T11:01:59;98164.34;;;15.02;62.11
53715;BME280;39608;55.630;37.864;2023-04-26T11:07:02;98180.00;;;14.86;63.26
53715;BME280;39608;55.630;37.864;2023-04-26T11:12:11;98179.88;;;14.98;62.76
53715;BME280;39608;55.630;37.864;2023-04-26T11:17:13;98181.94;;;14.85;62.49
53715;BME280;39608;55.630;37.864;2023-04-26T11:22:20;98180.06;;;14.89;61.83
53715;BME280;39608;55.630;37.864;2023-04-26T11:27:26;98194.13;;;15.08;61.88
53715;BME280;39608;55.630;37.864;2023-04-26T11:32:28;98189.31;;;15.20;61.12
53715;BME280;39608;55.630;37.864;2023-04-26T11:37:30;98199.59;;;15.47;60.74
53715;BME280;39608;55.630;37.864;2023-04-26T11:42:34;98197.06;;;16.20;61.32
53715;BME280;39608;55.630;37.864;2023-04-26T11:47:36;98192.31;;;17.17;57.77
53715;BME280;39608;55.630;37.864;2023-04-26T11:52:38;98201.56;;;17.73;56.37
53715;BME280;39608;55.630;37.864;2023-04-26T11:57:42;98212.03;;;17.98;54.37
53715;BME280;39608;55.630;37.864;2023-04-26T12:02:45;98201.75;;;17.53;54.10
53715;BME280;39608;55.630;37.864;2023-04-26T12:07:49;98214.47;;;17.72;53.69
53715;BME280;39608;55.630;37.864;2023-04-26T12:12:54;98206.47;;;17.56;53.23
53715;BME280;39608;55.630;37.864;2023-04-26T12:17:59;98231.72;;;17.08;53.46
53715;BME280;39608;55.630;37.864;2023-04-26T12:23:03;98225.38;;;16.77;53.83
53715;BME280;39608;55.630;37.864;2023-04-26T12:28:09;98234.06;;;16.60;54.28
53715;BME280;39608;55.630;37.864;2023-04-26T12:33:13;98243.84;;;16.34;54.45
53715;BME280;39608;55.630;37.864;2023-04-26T12:38:16;98239.47;;;16.10;55.48
53715;BME280;39608;55.630;37.864;2023-04-26T12:43:19;98223.75;;;16.03;54.07
53715;BME280;39608;55.630;37.864;2023-04-26T12:48:23;98237.75;;;16.02;53.62
53715;BME280;39608;55.630;37.864;2023-04-26T12:53:25;98245.75;;;16.11;52.21
53715;BME280;39608;55.630;37.864;2023-04-26T12:58:29;98238.84;;;16.40;51.85
53715;BME280;39608;55.630;37.864;2023-04-26T13:03:31;98238.44;;;17.75;49.39
53715;BME280;39608;55.630;37.864;2023-04-26T13:08:33;98255.56;;;19.48;45.90
53715;BME280;39608;55.630;37.864;2023-04-26T13:13:36;98266.50;;;20.61;43.83
53715;BME280;39608;55.630;37.864;2023-04-26T13:18:39;98269.19;;;21.37;41.30
53715;BME280;39608;55.630;37.864;2023-04-26T13:23:41;98267.88;;;21.81;41.34
53715;BME280;39608;55.630;37.864;2023-04-26T13:28:45;98271.41;;;22.52;39.76
53715;BME280;39608;55.630;37.864;2023-04-26T13:33:48;98275.28;;;22.66;38.58
53715;BME280;39608;55.630;37.864;2023-04-26T13:38:50;98264.84;;;22.88;37.12
53715;BME280;39608;55.630;37.864;2023-04-26T13:43:54;98272.69;;;22.93;37.89
53715;BME280;39608;55.630;37.864;2023-04-26T13:48:57;98274.09;;;23.16;37.88
53715;BME280;39608;55.630;37.864;2023-04-26T13:53:59;98271.41;;;23.01;36.05
53715;BME280;39608;55.630;37.864;2023-04-26T13:59:02;98275.00;;;22.53;37.36
53715;BME280;39608;55.630;37.864;2023-04-26T14:04:05;98270.69;;;22.97;36.01
53715;BME280;39608;55.630;37.864;2023-04-26T14:09:09;98281.41;;;23.71;34.72
53715;BME280;39608;55.630;37.864;2023-04-26T14:14:13;98286.72;;;23.89;34.66
53715;BME280;39608;55.630;37.864;2023-04-26T14:19:16;98298.34;;;23.39;34.65
53715;BME280;39608;55.630;37.864;2023-04-26T14:24:18;98282.75;;;22.69;34.91
53715;BME280;39608;55.630;37.864;2023-04-26T14:29:22;98295.22;;;22.32;36.15
53715;BME280;39608;55.630;37.864;2023-04-26T14:34:24;98305.97;;;22.82;35.11
53715;BME280;39608;55.630;37.864;2023-04-26T14:39:26;98321.47;;;23.18;33.77
53715;BME280;39608;55.630;37.864;2023-04-26T14:44:30;98310.44;;;22.62;35.06
53715;BME280;39608;55.630;37.864;2023-04-26T14:49:32;98312.03;;;22.63;34.70
53715;BME280;39608;55.630;37.864;2023-04-26T14:54:36;98331.00;;;23.13;33.76
53715;BME280;39608;55.630;37.864;2023-04-26T14:59:40;98321.78;;;22.78;33.62
53715;BME280;39608;55.630;37.864;2023-04-26T15:04:42;98324.66;;;21.79;34.58
53715;BME280;39608;55.630;37.864;2023-04-26T15:09:44;98320.00;;;21.36;34.88
53715;BME280;39608;55.630;37.864;2023-04-26T15:14:48;98324.78;;;21.17;35.52
53715;BME280;39608;55.630;37.864;2023-04-26T15:19:50;98332.66;;;21.01;35.60
53715;BME280;39608;55.630;37.864;2023-04-26T15:24:53;98331.88;;;20.93;35.26
53715;BME280;39608;55.630;37.864;2023-04-26T15:29:57;98344.47;;;20.76;35.67
53715;BME280;39608;55.630;37.864;2023-04-26T15:34:59;98352.97;;;20.21;36.23
53715;BME280;39608;55.630;37.864;2023-04-26T15:40:01;98351.38;;;19.42;37.78
53715;BME280;39608;55.630;37.864;2023-04-26T15:45:07;98356.16;;;19.01;39.13
53715;BME280;39608;55.630;37.864;2023-04-26T15:50:10;98353.38;;;18.56;39.17
53715;BME280;39608;55.630;37.864;2023-04-26T15:55:12;98365.59;;;18.24;40.30
53715;BME280;39608;55.630;37.864;2023-04-26T16:00:16;98366.22;;;18.10;40.38
53715;BME280;39608;55.630;37.864;2023-04-26T16:05:18;98378.53;;;17.93;41.45
53715;BME280;39608;55.630;37.864;2023-04-26T16:10:20;98385.44;;;17.84;40.68
53715;BME280;39608;55.630;37.864;2023-04-26T16:15:24;98399.00;;;17.73;40.73
53715;BME280;39608;55.630;37.864;2023-04-26T16:20:26;98403.13;;;17.59;40.62
53715;BME280;39608;55.630;37.864;2023-04-26T16:25:28;98390.84;;;17.50;41.51
53715;BME280;39608;55.630;37.864;2023-04-26T16:30:32;98397.44;;;17.45;41.27
53715;BME280;39608;55.630;37.864;2023-04-26T16:35:35;98403.50;;;17.35;41.20
53715;BME280;39608;55.630;37.864;2023-04-26T16:40:37;98401.03;;;17.26;41.21
53715;BME280;39608;55.630;37.864;2023-04-26T16:45:40;98418.13;;;17.19;41.36
53715;BME280;39608;55.630;37.864;2023-04-26T16:50:42;98416.81;;;17.09;41.72
53715;BME280;39608;55.630;37.864;2023-04-26T16:55:44;98424.13;;;17.02;41.66
53715;BME280;39608;55.630;37.864;2023-04-26T17:00:48;98433.06;;;16.99;41.93
53715;BME280;39608;55.630;37.864;2023-04-26T17:05:50;98433.38;;;16.93;42.27
53715;BME280;39608;55.630;37.864;2023-04-26T17:10:52;98438.00;;;16.89;42.11
53715;BME280;39608;55.630;37.864;2023-04-26T17:15:55;98445.47;;;16.92;41.98
53715;BME280;39608;55.630;37.864;2023-04-26T17:20:57;98444.09;;;16.83;42.49
53715;BME280;39608;55.630;37.864;2023-04-26T17:26:01;98453.47;;;16.82;42.37
53715;BME280;39608;55.630;37.864;2023-04-26T17:31:05;98457.38;;;16.81;41.78
53715;BME280;39608;55.630;37.864;2023-04-26T17:36:08;98464.34;;;16.78;42.18
53715;BME280;39608;55.630;37.864;2023-04-26T17:41:11;98474.06;;;16.75;42.23
53715;BME280;39608;55.630;37.864;2023-04-26T17:46:14;98486.25;;;16.78;42.17
53715;BME280;39608;55.630;37.864;2023-04-26T17:51:16;98500.72;;;16.79;42.38
53715;BME280;39608;55.630;37.864;2023-04-26T17:56:18;98501.59;;;16.63;42.75
53715;BME280;39608;55.630;37.864;2023-04-26T18:01:22;98498.56;;;16.49;43.49
53715;BME280;39608;55.630;37.864;2023-04-26T18:06:24;98509.59;;;16.33;43.96
53715;BME280;39608;55.630;37.864;2023-04-26T18:11:27;98514.50;;;16.07;44.55
53715;BME280;39608;55.630;37.864;2023-04-26T18:16:31;98514.97;;;15.94;44.69
53715;BME280;39608;55.630;37.864;2023-04-26T18:21:33;98510.13;;;15.87;44.74
53715;BME280;39608;55.630;37.864;2023-04-26T18:26:35;98516.03;;;15.89;44.86
53715;BME280;39608;55.630;37.864;2023-04-26T18:31:39;98528.91;;;15.88;45.01
53715;BME280;39608;55.630;37.864;2023-04-26T18:36:41;98537.38;;;15.83;45.41
53715;BME280;39608;55.630;37.864;2023-04-26T18:41:43;98531.53;;;15.85;44.39
53715;BME280;39608;55.630;37.864;2023-04-26T18:46:47;98537.38;;;15.83;45.47
53715;BME280;39608;55.630;37.864;2023-04-26T18:51:51;98539.31;;;15.83;45.03
53715;BME280;39608;55.630;37.864;2023-04-26T18:56:53;98541.34;;;15.86;45.20
53715;BME280;39608;55.630;37.864;2023-04-26T19:01:56;98536.13;;;15.97;44.92
53715;BME280;39608;55.630;37.864;2023-04-26T19:06:59;98547.59;;;15.86;44.79
53715;BME280;39608;55.630;37.864;2023-04-26T19:12:01;98545.56;;;15.67;45.07
53715;BME280;39608;55.630;37.864;2023-04-26T19:17:09;98540.06;;;15.51;45.41
53715;BME280;39608;55.630;37.864;2023-04-26T19:22:11;98555.31;;;15.36;45.66
53715;BME280;39608;55.630;37.864;2023-04-26T19:27:13;98545.75;;;15.14;46.28
53715;BME280;39608;55.630;37.864;2023-04-26T19:32:16;98555.97;;;15.17;46.90
53715;BME280;39608;55.630;37.864;2023-04-26T19:37:19;98562.69;;;15.20;46.60
53715;BME280;39608;55.630;37.864;2023-04-26T19:42:21;98575.03;;;15.30;46.00
53715;BME280;39608;55.630;37.864;2023-04-26T19:47:25;98576.38;;;15.36;46.17
53715;BME280;39608;55.630;37.864;2023-04-26T19:52:27;98590.66;;;15.29;46.19
53715;BME280;39608;55.630;37.864;2023-04-26T19:57:29;98554.78;;;15.02;46.68
53715;BME280;39608;55.630;37.864;2023-04-26T20:02:34;98582.50;;;15.17;46.66
53715;BME280;39608;55.630;37.864;2023-04-26T20:07:36;98589.00;;;15.12;46.46
53715;BME280;39608;55.630;37.864;2023-04-26T20:12:38;98606.78;;;15.06;46.51
53715;BME280;39608;55.630;37.864;2023-04-26T20:17:43;98611.34;;;15.02;46.87
53715;BME280;39608;55.630;37.864;2023-04-26T20:22:45;98612.03;;;14.99;46.69
53715;BME280;39608;55.630;37.864;2023-04-26T20:27:48;98588.25;;;14.71;46.92
53715;BME280;39608;55.630;37.864;2023-04-26T20:32:52;98620.94;;;14.96;46.85
53715;BME280;39608;55.630;37.864;2023-04-26T20:37:54;98604.84;;;14.66;47.26
53715;BME280;39608;55.630;37.864;2023-04-26T20:42:56;98639.41;;;14.74;48.03
53715;BME280;39608;55.630;37.864;2023-04-26T20:48:00;98634.25;;;14.85;47.48
53715;BME280;39608;55.630;37.864;2023-04-26T20:53:02;98641.91;;;14.67;47.88
53715;BME280;39608;55.630;37.864;2023-04-26T20:58:05;98641.91;;;14.54;48.36
53715;BME280;39608;55.630;37.864;2023-04-26T21:03:08;98663.06;;;14.70;47.60
53715;BME280;39608;55.630;37.864;2023-04-26T21:08:10;98653.94;;;14.53;48.31
53715;BME280;39608;55.630;37.864;2023-04-26T21:13:12;98663.03;;;14.58;48.19
53715;BME280;39608;55.630;37.864;2023-04-26T21:18:15;98673.38;;;14.52;48.57
53715;BME280;39608;55.630;37.864;2023-04-26T21:23:18;98658.84;;;14.48;49.07
53715;BME280;39608;55.630;37.864;2023-04-26T21:28:20;98673.63;;;14.47;49.36
53715;BME280;39608;55.630;37.864;2023-04-26T21:33:24;98684.63;;;14.50;49.19
53715;BME280;39608;55.630;37.864;2023-04-26T21:38:26;98681.47;;;14.48;49.19
53715;BME280;39608;55.630;37.864;2023-04-26T21:43:28;98671.94;;;14.30;49.56
53715;BME280;39608;55.630;37.864;2023-04-26T21:48:34;98689.28;;;14.25;50.08
53715;BME280;39608;55.630;37.864;2023-04-26T21:53:38;98676.34;;;14.22;49.70
53715;BME280;39608;55.630;37.864;2023-04-26T21:58:40;98680.69;;;14.35;49.93
53715;BME280;39608;55.630;37.864;2023-04-26T22:03:44;98690.66;;;14.44;49.49
53715;BME280;39608;55.630;37.864;2023-04-26T22:08:46;98686.91;;;14.36;50.02
53715;BME280;39608;55.630;37.864;2023-04-26T22:13:48;98703.41;;;14.40;49.97
53715;BME280;39608;55.630;37.864;2023-04-26T22:18:52;98697.16;;;14.51;49.23
53715;BME280;39608;55.630;37.864;2023-04-26T22:23:54;98696.22;;;14.35;49.71
53715;BME280;39608;55.630;37.864;2023-04-26T22:28:56;98696.22;;;14.23;50.11
53715;BME280;39608;55.630;37.864;2023-04-26T22:33:59;98683.47;;;14.14;50.19
53715;BME280;39608;55.630;37.864;2023-04-26T22:39:01;98682.09;;;13.96;50.48
53715;BME280;39608;55.630;37.864;2023-04-26T22:44:04;98706.88;;;14.03;50.33
53715;BME280;39608;55.630;37.864;2023-04-26T22:49:07;98699.63;;;13.74;50.99
53715;BME280;39608;55.630;37.864;2023-04-26T22:54:09;98714.81;;;13.62;51.28
53715;BME280;39608;55.630;37.864;2023-04-26T22:59:11;98718.41;;;13.33;51.95
53715;BME280;39608;55.630;37.864;2023-04-26T23:04:14;98725.72;;;13.41;51.44
53715;BME280;39608;55.630;37.864;2023-04-26T23:09:16;98723.22;;;13.36;51.37
53715;BME280;39608;55.630;37.864;2023-04-26T23:14:19;98737.66;;;13.28;51.77
53715;BME280;39608;55.630;37.864;2023-04-26T23:19:22;98717.19;;;13.22;51.96
53715;BME280;39608;55.630;37.864;2023-04-26T23:24:24;98724.84;;;13.07;52.11
53715;BME280;39608;55.630;37.864;2023-04-26T23:29:26;98714.00;;;12.98;52.26
53715;BME280;39608;55.630;37.864;2023-04-26T23:34:29;98733.00;;;13.07;52.07
53715;BME280;39608;55.630;37.864;2023-04-26T23:39:31;98737.34;;;13.08;52.30
53715;BME280;39608;55.630;37.864;2023-04-26T23:44:33;98745.59;;;12.91;52.32
53715;BME280;39608;55.630;37.864;2023-04-26T23:49:37;98757.69;;;12.42;53.65
53715;BME280;39608;55.630;37.864;2023-04-26T23:54:39;98751.53;;;12.07;54.41
53715;BME280;39608;55.630;37.864;2023-04-26T23:59:41;98772.00;;;12.04;54.67
